Terminal Aerodrome Forecast
Issued by NWS

Home | Current Version | Previous Version | Text Only | Print | Product List | Glossary On
Versions: 1 2 3 4 5 6 7 8 9 10 11 12 13 14 15 16
062
FTAK31 PAJN 261720
TAFASI
TAF
PASI 261720Z 2618/2718 28006KT P6SM VCSH SCT020 OVC030
      TEMPO 2618/2622 6SM -SHRA BR FEW015 OVC020
     FM262200 26011KT P6SM VCSH BKN030 BKN050
     FM270300 29007KT P6SM VCSH SCT015 BKN030 OVC050=

USA.gov is the U.S. government's official web portal to all federal, state and local government web resources and services.